Time;durP1;ratioP1;P1;durP2;ratioP2;P2;SDS_P1;SDS_P2;PMS_P1;PMS_P2;Temp;Humidity;BMP_temperature;BMP_pressure;BME280_temperature;BME280_humidity;BME280_pressure;Samples;Min_cycle;Max_cycle;Signal;HPM_P1;HPM_P2
2022/07/25 00:02:03;;;;;;;12.73;11.40;;;;;;;26.55;48.95;97249.34;5023336;28;20641;-73
2022/07/25 00:04:29;;;;;;;21.97;17.50;;;;;;;26.53;49.03;97241.53;5020754;28;20459;-75
2022/07/25 00:06:54;;;;;;;19.70;17.60;;;;;;;26.58;49.14;97243.47;5030691;28;20205;-73
2022/07/25 00:09:20;;;;;;;19.33;17.20;;;;;;;26.63;48.72;97246.19;5068401;28;20520;-74
2022/07/25 00:11:45;;;;;;;13.00;11.70;;;;;;;26.56;48.91;97226.78;5059095;28;20179;-74
2022/07/25 00:14:11;;;;;;;12.30;11.10;;;;;;;26.48;49.00;97236.91;5064671;28;20207;-73
2022/07/25 00:16:36;;;;;;;18.97;17.07;;;;;;;26.41;49.53;97241.69;5058446;28;20206;-74
2022/07/25 00:19:02;;;;;;;18.80;15.43;;;;;;;26.47;49.44;97243.34;5062696;28;20261;-73
2022/07/25 00:21:27;;;;;;;14.57;13.07;;;;;;;26.38;49.40;97236.81;5061599;28;20676;-72
2022/07/25 00:23:53;;;;;;;20.43;18.17;;;;;;;26.35;49.61;97237.31;5060978;28;20182;-71
2022/07/25 00:26:18;;;;;;;24.73;22.10;;;;;;;26.38;49.35;97239.50;5049509;28;20665;-72
2022/07/25 00:28:44;;;;;;;23.33;20.23;;;;;;;26.42;49.67;97245.19;5058852;28;20191;-72
2022/07/25 00:31:09;;;;;;;13.13;11.83;;;;;;;26.35;49.44;97237.31;5072223;28;20180;-72
2022/07/25 00:33:35;;;;;;;11.90;10.87;;;;;;;26.32;49.57;97241.34;5073617;28;20177;-72
2022/07/25 00:36:01;;;;;;;21.40;19.40;;;;;;;26.25;49.66;97242.59;5061467;28;20618;-72
2022/07/25 00:38:26;;;;;;;19.70;11.57;;;;;;;26.20;50.13;97236.13;5061334;28;20186;-71
2022/07/25 00:40:51;;;;;;;13.10;11.90;;;;;;;26.20;49.99;97236.13;5066721;28;20194;-73
2022/07/25 00:43:17;;;;;;;20.47;18.37;;;;;;;26.19;49.92;97239.88;5064485;28;20693;-72
2022/07/25 00:45:42;;;;;;;21.20;19.07;;;;;;;26.26;50.03;97241.53;5042294;28;20214;-72
2022/07/25 00:48:08;;;;;;;19.40;15.70;;;;;;;26.29;50.13;97238.34;5056024;28;20211;-72
2022/07/25 00:50:34;;;;;;;12.60;10.80;;;;;;;26.27;49.76;97235.09;5060764;28;20793;-72
2022/07/25 00:53:00;;;;;;;13.30;11.87;;;;;;;26.29;49.88;97233.00;5056345;28;20504;-72
2022/07/25 00:55:26;;;;;;;13.47;11.50;;;;;;;26.08;50.46;97235.44;5046920;28;20234;-71
2022/07/25 00:57:51;;;;;;;12.13;10.93;;;;;;;26.07;50.15;97237.28;5044612;28;20206;-73
2022/07/25 01:00:17;;;;;;;13.93;11.40;;;;;;;26.04;50.68;97237.00;5056853;28;20187;-72
2022/07/25 01:02:43;;;;;;;11.87;10.67;;;;;;;25.97;50.49;97237.19;5071887;28;20174;-73
2022/07/25 01:05:09;;;;;;;13.90;11.40;;;;;;;25.86;50.82;97235.44;5042659;28;20604;-73
2022/07/25 01:07:35;;;;;;;14.63;11.90;;;;;;;25.92;50.75;97232.56;5047224;28;20965;-73
2022/07/25 01:10:02;;;;;;;13.00;11.80;;;;;;;25.99;50.81;97229.69;5060990;28;20422;-73
2022/07/25 01:12:27;;;;;;;11.73;10.30;;;;;;;26.03;50.51;97236.16;5061194;28;20455;-73
2022/07/25 01:14:53;;;;;;;11.60;10.60;;;;;;;25.99;50.68;97242.28;5057198;28;20485;-72
2022/07/25 01:17:18;;;;;;;11.90;10.80;;;;;;;26.03;50.62;97236.16;5058445;28;20195;-72
2022/07/25 01:19:45;;;;;;;12.40;11.20;;;;;;;26.06;49.93;97237.56;5062878;28;20237;-73
2022/07/25 01:22:10;;;;;;;11.83;10.67;;;;;;;25.97;50.17;97233.69;5055711;28;20171;-73
2022/07/25 01:24:36;;;;;;;11.77;10.67;;;;;;;25.98;50.03;97221.88;5066136;28;20424;-72
2022/07/25 01:27:01;;;;;;;14.40;10.73;;;;;;;26.00;50.23;97225.13;5044775;28;20277;-73
2022/07/25 01:29:27;;;;;;;18.63;12.10;;;;;;;25.99;50.10;97218.97;5057598;28;20235;-73
2022/07/25 01:31:53;;;;;;;11.70;10.50;;;;;;;25.94;50.12;97215.41;5052435;28;20269;-73
2022/07/25 01:34:18;;;;;;;11.93;10.57;;;;;;;25.86;50.83;97217.47;5055272;28;20693;-73
2022/07/25 01:36:44;;;;;;;23.53;12.20;;;;;;;25.84;50.57;97216.91;5069888;28;20201;-73
2022/07/25 01:39:09;;;;;;;12.83;11.73;;;;;;;25.84;50.53;97208.84;5076715;28;20185;-73
2022/07/25 01:41:35;;;;;;;11.40;10.27;;;;;;;25.76;50.83;97203.94;5064546;28;20175;-73
2022/07/25 01:44:00;;;;;;;13.20;12.00;;;;;;;25.79;50.97;97214.16;5056837;28;20198;-74
2022/07/25 01:46:26;;;;;;;13.03;11.90;;;;;;;25.81;51.22;97211.22;5063910;28;20206;-73
2022/07/25 01:48:51;;;;;;;11.73;10.63;;;;;;;25.77;50.88;97209.03;5063678;28;20179;-74
2022/07/25 01:51:17;;;;;;;11.90;10.70;;;;;;;25.55;51.48;97209.06;5055883;28;20183;-73
2022/07/25 01:53:42;;;;;;;13.43;11.00;;;;;;;25.49;52.02;97210.03;5064248;28;20210;-74
2022/07/25 01:56:08;;;;;;;17.23;14.30;;;;;;;25.44;52.27;97208.09;5075603;28;20246;-73
2022/07/25 01:58:33;;;;;;;15.93;14.33;;;;;;;25.44;51.95;97197.38;5055413;28;20194;-74
2022/07/25 02:00:59;;;;;;;11.70;10.50;;;;;;;25.50;51.70;97197.47;5051929;28;20653;-74
2022/07/25 02:03:31;;;;;;;13.53;10.30;;;;;;;25.48;51.82;97197.69;5070867;28;20190;-74
2022/07/25 02:06:06;;;;;;;12.30;11.20;;;;;;;25.23;51.95;97195.47;5065650;28;20280;-74
2022/07/25 02:08:32;;;;;;;12.80;11.47;;;;;;;25.28;52.01;97198.19;5043879;28;20432;-75
2022/07/25 02:10:58;;;;;;;12.33;11.23;;;;;;;25.27;52.18;97194.72;5044204;28;20432;-74
2022/07/25 02:13:24;;;;;;;20.53;18.53;;;;;;;25.25;52.11;97188.78;5062226;28;20515;-74
2022/07/25 02:15:49;;;;;;;12.90;11.70;;;;;;;25.22;52.46;97189.28;5064797;28;20227;-74
2022/07/25 02:18:15;;;;;;;20.40;18.33;;;;;;;25.21;52.27;97186.84;5056854;28;20174;-73
2022/07/25 02:20:41;;;;;;;13.07;11.63;;;;;;;25.28;52.55;97184.78;5064592;28;20178;-74
2022/07/25 02:23:06;;;;;;;12.63;11.37;;;;;;;25.14;52.41;97181.66;5065028;28;20471;-73
2022/07/25 02:25:32;;;;;;;15.67;14.00;;;;;;;25.00;52.69;97182.00;5056504;28;20266;-74
2022/07/25 02:27:58;;;;;;;13.77;12.43;;;;;;;25.09;52.62;97177.03;5063990;28;20235;-72
2022/07/25 02:30:24;;;;;;;15.90;14.40;;;;;;;25.13;52.23;97172.00;5065284;28;20301;-74
2022/07/25 02:32:50;;;;;;;12.60;11.40;;;;;;;25.10;52.60;97175.16;5044404;28;20175;-75
2022/07/25 02:35:15;;;;;;;14.93;11.70;;;;;;;25.10;52.53;97176.00;5055615;28;20472;-75
2022/07/25 02:37:41;;;;;;;22.43;16.03;;;;;;;25.13;52.22;97170.16;5057181;28;20234;-74
2022/07/25 02:40:07;;;;;;;14.37;12.97;;;;;;;25.22;51.88;97172.38;5067994;28;20262;-73
2022/07/25 02:42:33;;;;;;;12.37;11.13;;;;;;;25.21;51.66;97174.25;5055698;28;20179;-74
2022/07/25 02:44:58;;;;;;;11.43;10.33;;;;;;;25.02;52.50;97167.56;5062505;28;20419;-75
2022/07/25 02:47:24;;;;;;;12.03;10.40;;;;;;;24.90;52.78;97164.97;5061382;28;20556;-74
2022/07/25 02:49:49;;;;;;;12.27;10.77;;;;;;;24.97;52.51;97161.06;5068743;28;20167;-73
2022/07/25 02:52:15;;;;;;;11.33;10.23;;;;;;;25.01;52.33;97169.44;5063312;28;20232;-73
2022/07/25 02:54:40;;;;;;;13.40;12.13;;;;;;;25.09;51.92;97168.19;5057219;28;20674;-74
2022/07/25 02:57:06;;;;;;;12.60;11.40;;;;;;;25.13;51.37;97170.16;5063181;28;20231;-73
2022/07/25 02:59:31;;;;;;;11.10;10.10;;;;;;;25.13;51.35;97170.16;5053539;28;20172;-74
2022/07/25 03:01:57;;;;;;;11.03;10.13;;;;;;;25.14;51.29;97162.91;5062481;28;20542;-73
2022/07/25 03:04:22;;;;;;;11.70;10.50;;;;;;;24.98;51.59;97161.88;5062475;28;20210;-73
2022/07/25 03:06:47;;;;;;;11.50;10.50;;;;;;;25.00;51.55;97167.81;5058734;28;20618;-73
2022/07/25 03:09:13;;;;;;;12.03;10.70;;;;;;;24.99;51.79;97164.31;5063364;28;20206;-74
2022/07/25 03:11:38;;;;;;;11.90;10.80;;;;;;;25.01;51.62;97164.06;5056471;28;20229;-73
2022/07/25 03:14:04;;;;;;;10.90;9.70;;;;;;;25.02;51.25;97168.34;5063565;28;20203;-70
2022/07/25 03:16:29;;;;;;;11.23;10.10;;;;;;;24.81;51.97;97165.38;5039546;28;20611;-74
2022/07/25 03:18:55;;;;;;;11.53;10.43;;;;;;;24.85;52.30;97160.34;5044339;28;20174;-73
2022/07/25 03:21:20;;;;;;;10.03;9.23;;;;;;;24.87;51.75;97154.75;5063572;28;20194;-73
2022/07/25 03:23:46;;;;;;;11.60;9.90;;;;;;;24.82;51.94;97156.28;5057447;28;20179;-73
2022/07/25 03:26:11;;;;;;;16.17;10.40;;;;;;;24.85;51.83;97152.31;5058683;28;20577;-72
2022/07/25 03:28:37;;;;;;;10.97;9.97;;;;;;;24.84;51.71;97145.31;5063838;28;20181;-73
2022/07/25 03:31:03;;;;;;;11.63;10.43;;;;;;;24.85;51.77;97146.94;5065364;28;20171;-73
2022/07/25 03:33:28;;;;;;;12.30;11.20;;;;;;;24.81;52.09;97135.91;5055102;28;20182;-73
2022/07/25 03:35:55;;;;;;;11.73;10.63;;;;;;;24.82;52.25;97137.53;5067866;28;20471;-74
2022/07/25 03:38:20;;;;;;;12.27;11.03;;;;;;;24.91;51.81;97142.47;5066442;28;20194;-73
2022/07/25 03:40:46;;;;;;;11.67;10.43;;;;;;;24.97;51.03;97138.81;5069780;28;20409;-73
2022/07/25 03:43:11;;;;;;;10.60;9.70;;;;;;;24.91;51.29;97145.97;5061905;28;20619;-73
2022/07/25 03:45:37;;;;;;;10.30;9.43;;;;;;;24.84;51.49;97137.28;5069663;28;20189;-73
2022/07/25 03:48:03;;;;;;;12.40;10.33;;;;;;;24.81;52.00;97127.06;5065575;28;20185;-74
2022/07/25 03:50:28;;;;;;;12.20;10.70;;;;;;;24.83;51.78;97123.09;5074266;28;20645;-74
2022/07/25 03:52:54;;;;;;;11.00;10.10;;;;;;;24.94;51.21;97124.03;5052583;28;20331;-74
2022/07/25 03:55:19;;;;;;;10.83;9.83;;;;;;;24.93;51.18;97122.41;5065157;28;20207;-74
2022/07/25 03:57:44;;;;;;;12.60;10.23;;;;;;;24.78;51.64;97116.84;5070198;28;20201;-73
2022/07/25 04:00:11;;;;;;;11.73;10.53;;;;;;;24.75;51.90;97125.38;5066909;28;20456;-73
2022/07/25 04:02:37;;;;;;;11.40;10.20;;;;;;;24.78;51.51;97114.97;5069602;28;20258;-73
2022/07/25 04:05:07;;;;;;;11.63;10.53;;;;;;;24.74;52.14;97110.34;5048833;28;20446;-73
2022/07/25 04:07:33;;;;;;;11.70;10.50;;;;;;;24.77;52.13;97112.53;5059613;28;20818;-73
2022/07/25 04:09:58;;;;;;;13.30;11.90;;;;;;;24.79;51.96;97110.44;5064305;28;20422;-72
2022/07/25 04:12:24;;;;;;;11.77;10.60;;;;;;;24.64;52.50;97114.47;5061385;28;20432;-73
2022/07/25 04:14:49;;;;;;;12.07;10.83;;;;;;;24.57;53.05;97113.00;5067040;28;20202;-73
2022/07/25 04:17:15;;;;;;;12.87;10.50;;;;;;;24.47;53.44;97119.03;5058726;28;20699;-72
2022/07/25 04:19:41;;;;;;;14.90;11.53;;;;;;;24.42;53.32;97110.91;5062828;28;20175;-71
2022/07/25 04:22:06;;;;;;;11.87;10.67;;;;;;;24.44;53.59;97108.81;5068065;28;20428;-74
2022/07/25 04:24:32;;;;;;;13.30;11.43;;;;;;;24.48;53.13;97109.94;5065619;28;20198;-73
2022/07/25 04:26:57;;;;;;;13.10;12.00;;;;;;;24.54;53.02;97108.97;5051504;28;20689;-74
2022/07/25 04:29:23;;;;;;;11.60;10.53;;;;;;;24.57;52.85;97111.16;5064161;28;20672;-74
2022/07/25 04:31:48;;;;;;;12.20;11.00;;;;;;;24.60;52.76;97107.97;5065661;28;20667;-73
2022/07/25 04:34:14;;;;;;;12.37;10.30;;;;;;;24.60;53.29;97107.19;5070265;28;20214;-74
2022/07/25 04:36:39;;;;;;;14.40;11.40;;;;;;;24.51;53.51;97104.09;5067705;28;20213;-74
2022/07/25 04:39:05;;;;;;;12.30;11.20;;;;;;;24.51;53.98;97104.09;5069802;28;20185;-74
2022/07/25 04:41:30;;;;;;;12.80;10.00;;;;;;;24.50;53.26;97105.16;5052460;28;20728;-73
2022/07/25 04:43:56;;;;;;;13.70;10.90;;;;;;;24.58;53.17;97114.63;5048532;28;20220;-75
2022/07/25 04:46:22;;;;;;;14.63;10.27;;;;;;;24.66;53.10;97109.69;5067545;28;20573;-74
2022/07/25 04:48:48;;;;;;;14.10;11.00;;;;;;;24.71;53.11;97108.16;5060223;28;20175;-74
2022/07/25 04:51:14;;;;;;;12.83;11.50;;;;;;;24.77;53.11;97107.97;5070323;28;20469;-75
2022/07/25 04:53:40;;;;;;;16.97;14.50;;;;;;;24.84;53.19;97111.31;5070526;28;20421;-74
2022/07/25 04:56:06;;;;;;;17.93;13.50;;;;;;;24.91;53.54;97113.81;5063305;28;20544;-73
2022/07/25 04:58:31;;;;;;;17.30;13.37;;;;;;;24.99;53.32;97109.91;5070410;28;20273;-74
2022/07/25 05:00:57;;;;;;;12.57;11.37;;;;;;;25.02;53.13;97113.94;5070706;28;20225;-73
2022/07/25 05:03:23;;;;;;;17.47;10.40;;;;;;;25.07;52.27;97098.75;5067659;28;20197;-74
2022/07/25 05:05:49;;;;;;;13.20;10.07;;;;;;;25.06;51.01;97099.00;5064195;28;20289;-74
2022/07/25 05:08:24;;;;;;;11.43;10.40;;;;;;;25.09;51.10;97098.47;5069770;28;20181;-74
2022/07/25 05:10:49;;;;;;;10.43;9.53;;;;;;;25.12;50.43;97100.66;5065429;28;20420;-73
2022/07/25 05:13:15;;;;;;;11.83;10.73;;;;;;;25.15;50.27;97102.84;5065640;28;20490;-73
2022/07/25 05:15:40;;;;;;;12.97;10.43;;;;;;;25.23;50.37;97099.72;5061904;28;20289;-74
2022/07/25 05:18:06;;;;;;;12.50;10.90;;;;;;;25.23;50.37;97099.72;5066367;28;20182;-73
2022/07/25 05:20:31;;;;;;;10.80;9.80;;;;;;;25.32;50.85;97104.69;5034626;28;20614;-74
2022/07/25 05:22:57;;;;;;;13.73;11.00;;;;;;;25.40;50.69;97096.19;5035895;28;20246;-74
2022/07/25 05:25:22;;;;;;;12.27;10.37;;;;;;;25.49;50.67;97091.22;5069922;28;20272;-74
2022/07/25 05:27:48;;;;;;;13.13;10.40;;;;;;;25.58;50.37;97095.88;5048442;28;20198;-73
2022/07/25 05:30:14;;;;;;;11.30;10.20;;;;;;;25.67;50.18;97098.91;5054215;28;20618;-73
2022/07/25 05:32:39;;;;;;;11.53;10.17;;;;;;;25.75;50.40;97089.59;5070134;28;20244;-73
2022/07/25 05:35:06;;;;;;;13.60;10.17;;;;;;;25.83;50.51;97091.03;5075902;28;20205;-74
2022/07/25 05:37:33;;;;;;;11.73;10.50;;;;;;;25.92;50.64;97089.50;5050846;28;20293;-75
2022/07/25 05:39:58;;;;;;;11.53;10.40;;;;;;;26.04;50.66;97081.28;5058425;28;20420;-74
2022/07/25 05:42:24;;;;;;;12.67;11.00;;;;;;;26.15;50.17;97088.38;5059355;28;20433;-74
2022/07/25 05:44:49;;;;;;;12.50;10.93;;;;;;;26.29;50.17;97077.22;5038104;28;20550;-74
2022/07/25 05:47:15;;;;;;;11.57;10.10;;;;;;;26.41;49.75;97079.69;5069714;28;20281;-75
2022/07/25 05:49:40;;;;;;;13.60;10.57;;;;;;;26.53;48.74;97083.00;5065220;28;20207;-74
2022/07/25 05:52:06;;;;;;;13.23;10.20;;;;;;;26.63;48.19;97082.28;5066600;28;20170;-74
2022/07/25 05:54:32;;;;;;;11.40;9.80;;;;;;;26.76;47.72;97078.34;5056094;28;20194;-74
2022/07/25 05:56:58;;;;;;;11.60;10.50;;;;;;;26.88;47.36;97078.13;5065601;28;20209;-74
2022/07/25 05:59:23;;;;;;;11.40;9.87;;;;;;;27.04;46.70;97076.31;5060606;28;20433;-73
2022/07/25 06:01:49;;;;;;;13.47;9.77;;;;;;;27.17;46.70;97073.16;5062715;28;20219;-75
2022/07/25 06:04:14;;;;;;;10.10;9.10;;;;;;;27.34;46.17;97074.84;5064280;28;20213;-75
2022/07/25 06:06:40;;;;;;;11.97;10.20;;;;;;;27.42;45.60;97069.75;5062016;28;20206;-75
2022/07/25 06:09:33;;;;;;;;;;;;;;;;;;;;;
2022/07/25 06:12:03;;;;;;;13.90;9.40;;;;;;;27.73;45.53;97050.19;5067993;28;20208;-73
2022/07/25 06:14:29;;;;;;;9.73;8.80;;;;;;;27.87;44.49;97050.47;5064382;28;20456;-73
2022/07/25 06:16:55;;;;;;;12.80;9.00;;;;;;;28.02;44.13;97055.88;5055846;28;20456;-73
2022/07/25 06:19:20;;;;;;;11.77;8.83;;;;;;;28.17;44.12;97056.97;5065251;28;20189;-73
2022/07/25 06:21:46;;;;;;;11.57;9.63;;;;;;;28.29;43.90;97045.94;5062914;28;20425;-74
2022/07/25 06:24:11;;;;;;;10.57;8.73;;;;;;;28.41;43.28;97057.25;5060030;28;20186;-73
2022/07/25 06:26:37;;;;;;;11.33;9.43;;;;;;;28.56;43.15;97051.00;5057993;28;20264;-72
2022/07/25 06:29:02;;;;;;;10.20;9.17;;;;;;;28.70;43.21;97050.44;5058391;28;20186;-74
2022/07/25 06:31:28;;;;;;;11.07;9.90;;;;;;;28.80;42.69;97048.53;5039685;28;20662;-73
2022/07/25 06:33:54;;;;;;;13.53;9.27;;;;;;;28.93;42.38;97055.25;5059022;28;20222;-72
2022/07/25 06:36:19;;;;;;;9.10;8.30;;;;;;;28.95;41.89;97053.09;5068722;28;20350;-73
2022/07/25 06:38:45;;;;;;;11.23;9.07;;;;;;;29.15;41.78;97045.19;5062068;28;20187;-73
2022/07/25 06:41:14;;;;;;;9.60;8.70;;;;;;;29.13;41.14;97048.13;5061278;28;20183;-73
2022/07/25 06:43:40;;;;;;;10.13;8.50;;;;;;;29.19;40.84;97046.22;5060101;28;20175;-72
2022/07/25 06:46:06;;;;;;;11.77;9.30;;;;;;;29.19;40.94;97041.66;5052446;28;20451;-73
2022/07/25 06:48:31;;;;;;;11.10;8.70;;;;;;;29.37;40.45;97047.50;5069541;28;20560;-72
2022/07/25 06:50:56;;;;;;;10.20;9.27;;;;;;;29.49;40.40;97041.78;5067641;28;20256;-74
2022/07/25 06:53:22;;;;;;;9.23;8.53;;;;;;;29.68;40.11;97052.72;5049778;28;20649;-71
2022/07/25 06:55:47;;;;;;;9.53;8.17;;;;;;;29.84;40.17;97042.63;5031027;28;20214;-73
2022/07/25 06:58:13;;;;;;;9.80;9.00;;;;;;;30.01;40.00;97042.25;5065569;28;20183;-73
2022/07/25 07:00:38;;;;;;;9.03;8.23;;;;;;;30.19;39.42;97043.44;5072159;28;20206;-75
2022/07/25 07:03:04;;;;;;;8.90;8.20;;;;;;;30.26;37.95;97045.81;5068228;28;20189;-73
2022/07/25 07:05:32;;;;;;;12.23;8.67;;;;;;;30.39;37.91;97044.38;5061328;28;20203;-73
2022/07/25 07:07:58;;;;;;;8.93;8.03;;;;;;;30.52;38.28;97051.81;5071365;28;20190;-72
2022/07/25 07:10:25;;;;;;;9.87;8.87;;;;;;;30.66;37.92;97043.84;5042913;28;20562;-73
2022/07/25 07:13:01;;;;;;;8.40;7.60;;;;;;;30.84;38.50;97039.56;5037785;28;20444;-73
2022/07/25 07:15:27;;;;;;;13.33;9.00;;;;;;;30.90;38.19;97043.03;5064862;28;20831;-71
2022/07/25 07:17:53;;;;;;;9.80;8.90;;;;;;;31.00;38.15;97036.69;5058277;28;20469;-72
2022/07/25 07:20:18;;;;;;;12.80;9.03;;;;;;;31.06;38.07;97035.56;5078540;28;20179;-73
2022/07/25 07:22:45;;;;;;;9.60;8.70;;;;;;;31.09;37.98;97037.66;5073102;28;20265;-73
2022/07/25 07:25:15;;;;;;;9.87;8.97;;;;;;;31.20;37.97;97036.44;5069041;28;20200;-72
2022/07/25 07:27:41;;;;;;;10.17;9.23;;;;;;;31.37;38.43;97035.16;5040292;28;20464;-73
2022/07/25 07:30:07;;;;;;;9.90;8.70;;;;;;;31.24;38.01;97037.50;5060244;28;20913;-72
2022/07/25 07:32:32;;;;;;;9.77;8.83;;;;;;;31.38;38.08;97037.56;5066156;28;20190;-71
2022/07/25 07:34:58;;;;;;;10.20;9.20;;;;;;;31.60;37.73;97038.06;5068992;28;20475;-71
2022/07/25 07:37:23;;;;;;;9.30;8.50;;;;;;;31.76;37.72;97030.56;5070046;28;20221;-73
2022/07/25 07:39:49;;;;;;;9.43;8.53;;;;;;;31.91;37.57;97026.81;5077711;28;20178;-73
2022/07/25 07:42:14;;;;;;;12.23;9.33;;;;;;;32.06;37.47;97012.19;5067093;28;20185;-72
2022/07/25 07:44:40;;;;;;;10.17;9.27;;;;;;;32.23;36.99;97017.03;5071468;28;20178;-71
2022/07/25 07:47:05;;;;;;;11.00;9.40;;;;;;;32.22;36.60;97020.84;5070972;28;20256;-72
2022/07/25 07:49:31;;;;;;;10.97;9.50;;;;;;;32.31;36.54;97016.41;5065966;28;20194;-73
2022/07/25 07:51:56;;;;;;;9.40;8.60;;;;;;;32.50;36.24;97020.94;5067241;28;20190;-72
2022/07/25 07:57:07;;;;;;;9.63;8.83;;;;;;;32.55;36.69;97010.78;5066055;28;20209;-73
2022/07/25 07:59:32;;;;;;;9.60;8.80;;;;;;;32.82;36.11;97008.44;5061109;28;20428;-73
2022/07/25 08:01:58;;;;;;;9.70;8.90;;;;;;;33.02;35.53;97012.59;5066409;28;20489;-73
2022/07/25 08:04:23;;;;;;;9.30;8.43;;;;;;;33.24;35.53;97007.25;5059166;28;20183;-72
2022/07/25 08:06:49;;;;;;;8.83;8.13;;;;;;;33.37;33.72;97007.56;5059481;28;20206;-73
2022/07/25 08:09:15;;;;;;;9.00;8.30;;;;;;;33.56;32.75;97007.41;5070016;28;20186;-72
2022/07/25 08:11:41;;;;;;;10.07;9.10;;;;;;;33.75;32.79;97004.50;5038644;28;20190;-73
2022/07/25 08:14:06;;;;;;;11.43;8.83;;;;;;;33.77;32.77;97010.44;5059399;28;20468;-72
2022/07/25 08:16:32;;;;;;;8.73;7.83;;;;;;;34.06;32.53;97001.03;5061078;28;20245;-73
2022/07/25 08:18:58;;;;;;;9.90;8.07;;;;;;;34.27;32.19;97014.13;5061686;28;20664;-73
2022/07/25 08:21:23;;;;;;;9.00;8.30;;;;;;;34.45;31.52;97010.38;5054280;28;20187;-73
2022/07/25 08:23:49;;;;;;;8.77;7.97;;;;;;;34.65;30.86;97010.94;5055574;28;20557;-72
2022/07/25 08:26:15;;;;;;;11.63;10.60;;;;;;;34.85;30.35;97014.19;5062608;28;20201;-71
2022/07/25 08:28:41;;;;;;;7.93;7.23;;;;;;;34.90;29.26;97014.06;5065449;28;20649;-73
2022/07/25 08:31:07;;;;;;;7.77;7.17;;;;;;;34.97;29.07;97014.41;5066934;28;20265;-72
2022/07/25 08:33:32;;;;;;;8.10;7.40;;;;;;;35.13;29.17;97012.03;5050947;28;20563;-73
2022/07/25 08:35:58;;;;;;;8.23;7.30;;;;;;;35.22;29.01;97014.78;5061333;28;20296;-71
2022/07/25 08:38:25;;;;;;;8.07;7.47;;;;;;;35.43;28.96;97019.63;5036423;28;20670;-72
2022/07/25 08:40:52;;;;;;;8.67;7.90;;;;;;;35.31;28.28;97021.03;5055354;28;20209;-73
2022/07/25 08:43:18;;;;;;;8.90;7.10;;;;;;;35.56;27.81;97023.31;5041216;28;20810;-72
2022/07/25 08:45:47;;;;;;;8.60;7.80;;;;;;;35.72;27.93;97020.91;5054189;28;20429;-73
2022/07/25 08:48:16;;;;;;;8.73;7.87;;;;;;;35.90;27.49;97014.31;5064839;28;20442;-72
2022/07/25 08:50:42;;;;;;;8.50;7.70;;;;;;;36.08;27.49;97020.56;5060181;28;20431;-72
2022/07/25 08:53:07;;;;;;;7.30;6.70;;;;;;;36.22;27.16;97022.31;5060215;28;20424;-72
2022/07/25 08:55:33;;;;;;;9.70;7.37;;;;;;;36.17;26.73;97019.75;5064512;28;20211;-72
2022/07/25 08:57:59;;;;;;;7.87;7.10;;;;;;;36.35;26.50;97004.94;5064747;28;20176;-73
2022/07/25 09:00:27;;;;;;;7.37;6.73;;;;;;;36.41;26.84;97003.63;5058750;28;20641;-71
2022/07/25 09:02:58;;;;;;;8.07;7.47;;;;;;;36.65;27.20;97006.91;5061052;28;20181;-73
2022/07/25 09:05:24;;;;;;;7.63;6.70;;;;;;;36.79;26.99;97006.69;5073470;28;20423;-73
2022/07/25 09:07:50;;;;;;;10.47;7.07;;;;;;;36.88;26.78;97004.69;5047513;28;20459;-72
2022/07/25 09:10:19;;;;;;;7.67;7.00;;;;;;;36.82;25.88;96998.63;5040289;28;20756;-73
2022/07/25 09:12:56;;;;;;;6.90;6.30;;;;;;;36.94;25.86;97008.06;5048897;28;20427;-74
2022/07/25 09:15:29;;;;;;;7.00;6.40;;;;;;;37.09;25.39;96996.56;5060610;28;20558;-73
2022/07/25 09:17:57;;;;;;;7.37;6.70;;;;;;;37.22;25.12;96992.00;5053183;28;20526;-73
2022/07/25 09:20:23;;;;;;;7.10;6.40;;;;;;;37.38;24.87;96991.38;5045139;28;20465;-71
2022/07/25 09:22:49;;;;;;;8.17;6.50;;;;;;;37.54;24.66;97002.53;5065532;28;20439;-73
2022/07/25 09:25:28;;;;;;;7.27;6.67;;;;;;;37.49;24.44;96998.09;5063614;28;20420;-74
2022/07/25 09:27:55;;;;;;;8.30;7.50;;;;;;;37.24;24.39;96994.38;5057870;28;20703;-73
2022/07/25 09:30:20;;;;;;;7.80;7.10;;;;;;;37.22;24.65;96996.63;5066166;28;20440;-73
2022/07/25 09:32:46;;;;;;;8.57;7.67;;;;;;;37.47;24.79;96994.88;5068178;28;20432;-72
2022/07/25 09:35:11;;;;;;;8.27;7.40;;;;;;;37.63;24.52;96990.38;5061575;28;20574;-72
2022/07/25 09:37:37;;;;;;;14.20;7.43;;;;;;;37.82;24.93;96989.09;5045011;28;20212;-73
2022/07/25 09:40:18;;;;;;;8.07;7.27;;;;;;;37.95;24.79;96990.75;5063702;28;20182;-73
2022/07/25 09:42:49;;;;;;;8.20;6.87;;;;;;;38.13;24.80;96990.56;5070348;28;20187;-71
2022/07/25 09:45:14;;;;;;;11.27;7.27;;;;;;;38.28;24.13;96989.09;5065682;28;20462;-73
2022/07/25 09:48:00;;;;;;;7.63;6.90;;;;;;;38.41;23.87;96988.00;5065840;28;20842;-73
2022/07/25 09:50:28;;;;;;;6.83;6.13;;;;;;;38.60;24.08;96991.31;5061958;28;20189;-73
2022/07/25 09:52:56;;;;;;;7.67;6.87;;;;;;;38.74;23.64;96980.03;5069523;28;20470;-73
2022/07/25 09:55:22;;;;;;;7.03;6.53;;;;;;;38.77;23.31;96979.34;5069334;28;20457;-73
2022/07/25 09:57:48;;;;;;;6.83;6.23;;;;;;;38.64;23.44;96984.00;5065943;28;20435;-73
2022/07/25 10:00:19;;;;;;;10.60;6.97;;;;;;;38.59;23.23;96974.09;5058574;28;20421;-72
2022/07/25 10:02:53;;;;;;;9.20;6.77;;;;;;;38.76;23.82;96973.06;5054512;28;20458;-72
2022/07/25 10:05:43;;;;;;;6.20;5.60;;;;;;;38.79;22.38;96966.09;5050473;28;20418;-72
2022/07/25 10:08:10;;;;;;;6.17;5.60;;;;;;;38.85;22.69;96960.09;5065321;28;20906;-72
2022/07/25 10:10:38;;;;;;;6.20;5.70;;;;;;;39.04;22.46;96953.19;5046887;28;20445;-72
2022/07/25 10:13:14;;;;;;;5.97;5.47;;;;;;;39.26;22.15;96957.34;5065083;28;21002;-73
2022/07/25 10:15:42;;;;;;;6.33;5.73;;;;;;;39.40;20.96;96961.69;5064468;28;20487;-71
2022/07/25 10:18:08;;;;;;;9.00;5.50;;;;;;;39.15;20.88;96954.28;5067010;28;20434;-71
2022/07/25 10:20:34;;;;;;;6.63;5.87;;;;;;;39.11;21.37;96949.88;5075985;28;20513;-72
2022/07/25 10:23:00;;;;;;;8.20;5.80;;;;;;;39.41;21.47;96950.34;5072690;28;20214;-72
2022/07/25 10:25:26;;;;;;;6.10;5.17;;;;;;;39.60;20.57;96944.22;5067990;28;20198;-72
2022/07/25 10:28:01;;;;;;;9.37;4.70;;;;;;;39.81;20.28;96936.94;5065815;28;20229;-72
2022/07/25 10:30:33;;;;;;;5.07;4.67;;;;;;;40.01;20.22;96940.59;5064381;28;20201;-72
2022/07/25 10:33:05;;;;;;;6.20;4.87;;;;;;;39.88;18.90;96940.69;5070270;28;20220;-71
2022/07/25 10:35:31;;;;;;;5.47;4.93;;;;;;;40.11;19.82;96942.03;5046399;28;20210;-74
2022/07/25 10:37:58;;;;;;;4.60;4.20;;;;;;;40.27;19.48;96945.56;5057167;28;20282;-71
2022/07/25 10:40:26;;;;;;;5.53;4.47;;;;;;;40.42;18.72;96943.19;5074829;28;20183;-72
2022/07/25 10:42:59;;;;;;;4.67;4.27;;;;;;;40.57;18.55;96933.34;5059119;28;20265;-72
2022/07/25 10:45:25;;;;;;;3.80;3.60;;;;;;;40.65;18.21;96930.41;5046354;28;20623;-73
2022/07/25 10:47:54;;;;;;;6.78;3.92;;;;;;;40.81;18.60;96929.59;5070530;28;20331;-72
2022/07/25 10:50:21;;;;;;;3.90;3.60;;;;;;;40.96;18.21;96919.69;5071187;28;20189;-72
2022/07/25 10:52:57;;;;;;;4.65;3.90;;;;;;;41.05;18.28;96920.31;5066921;28;20223;-74
2022/07/25 10:55:23;;;;;;;5.93;5.53;;;;;;;41.19;17.81;96908.81;5067172;28;20197;-73
2022/07/25 10:58:03;;;;;;;4.15;3.75;;;;;;;41.29;17.32;96910.19;5072227;28;20687;-74
2022/07/25 11:00:28;;;;;;;3.75;3.55;;;;;;;41.28;16.47;96905.88;5058176;28;20184;-74
2022/07/25 11:02:56;;;;;;;3.88;3.42;;;;;;;41.10;16.97;96909.03;5067202;28;20173;-74
2022/07/25 11:05:21;;;;;;;3.38;3.08;;;;;;;40.89;17.26;96905.81;5057877;28;20185;-73
2022/07/25 11:07:51;;;;;;;3.70;3.35;;;;;;;41.03;17.24;96900.63;5065508;28;20201;-74
2022/07/25 11:10:24;;;;;;;3.80;3.50;;;;;;;41.27;17.10;96913.28;5065003;28;20183;-74
2022/07/25 11:12:50;;;;;;;5.00;3.50;;;;;;;41.36;16.63;96906.78;5061699;28;20190;-74
2022/07/25 11:15:15;;;;;;;4.00;3.00;;;;;;;41.05;16.97;96903.81;5064741;28;20206;-73
2022/07/25 11:17:52;;;;;;;3.25;3.05;;;;;;;40.99;16.88;96897.00;5042563;28;20292;-73
2022/07/25 11:20:18;;;;;;;3.88;3.58;;;;;;;41.04;16.84;96896.72;5065312;28;20177;-72
2022/07/25 11:22:54;;;;;;;4.00;3.70;;;;;;;41.27;16.78;96904.28;5060861;28;20190;-73
2022/07/25 11:25:21;;;;;;;3.70;3.35;;;;;;;41.31;16.84;96888.66;5078816;28;20192;-72